sensor_id;sensor_type;location;lat;lon;timestamp;P1;durP1;ratioP1;P2;durP2;ratioP2
58083;SDS011;43882;51.550;11.858;2023-08-17T00:01:49;21.65;;;11.55;;
58083;SDS011;43882;51.550;11.858;2023-08-17T00:04:15;23.23;;;11.48;;
58083;SDS011;43882;51.550;11.858;2023-08-17T00:06:42;21.40;;;10.95;;
58083;SDS011;43882;51.550;11.858;2023-08-17T00:09:08;21.85;;;11.23;;
58083;SDS011;43882;51.550;11.858;2023-08-17T00:11:34;21.30;;;11.15;;
58083;SDS011;43882;51.550;11.858;2023-08-17T00:14:00;22.13;;;11.32;;
58083;SDS011;43882;51.550;11.858;2023-08-17T00:16:26;21.00;;;11.18;;
58083;SDS011;43882;51.550;11.858;2023-08-17T00:18:52;21.67;;;11.60;;
58083;SDS011;43882;51.550;11.858;2023-08-17T00:21:18;22.88;;;11.30;;
58083;SDS011;43882;51.550;11.858;2023-08-17T00:23:44;21.80;;;11.35;;
58083;SDS011;43882;51.550;11.858;2023-08-17T00:26:10;20.00;;;10.70;;
58083;SDS011;43882;51.550;11.858;2023-08-17T00:28:37;19.52;;;10.25;;
58083;SDS011;43882;51.550;11.858;2023-08-17T00:31:03;19.33;;;10.13;;
58083;SDS011;43882;51.550;11.858;2023-08-17T00:33:29;20.48;;;9.90;;
58083;SDS011;43882;51.550;11.858;2023-08-17T00:35:55;20.70;;;10.20;;
58083;SDS011;43882;51.550;11.858;2023-08-17T00:38:21;20.02;;;10.38;;
58083;SDS011;43882;51.550;11.858;2023-08-17T00:40:47;19.85;;;9.98;;
58083;SDS011;43882;51.550;11.858;2023-08-17T00:43:13;19.60;;;9.90;;
58083;SDS011;43882;51.550;11.858;2023-08-17T00:45:39;19.23;;;9.82;;
58083;SDS011;43882;51.550;11.858;2023-08-17T00:48:05;19.83;;;9.32;;
58083;SDS011;43882;51.550;11.858;2023-08-17T00:50:32;18.83;;;9.73;;
58083;SDS011;43882;51.550;11.858;2023-08-17T00:52:59;20.58;;;9.50;;
58083;SDS011;43882;51.550;11.858;2023-08-17T00:55:26;19.10;;;8.93;;
58083;SDS011;43882;51.550;11.858;2023-08-17T00:57:53;18.42;;;9.27;;
58083;SDS011;43882;51.550;11.858;2023-08-17T01:00:19;19.42;;;9.45;;
58083;SDS011;43882;51.550;11.858;2023-08-17T01:02:45;18.30;;;8.95;;
58083;SDS011;43882;51.550;11.858;2023-08-17T01:05:12;19.45;;;8.43;;
58083;SDS011;43882;51.550;11.858;2023-08-17T01:07:38;18.13;;;8.43;;
58083;SDS011;43882;51.550;11.858;2023-08-17T01:10:04;18.38;;;8.88;;
58083;SDS011;43882;51.550;11.858;2023-08-17T01:12:32;20.33;;;8.75;;
58083;SDS011;43882;51.550;11.858;2023-08-17T01:15:10;17.48;;;8.40;;
58083;SDS011;43882;51.550;11.858;2023-08-17T01:20:07;18.13;;;9.00;;
58083;SDS011;43882;51.550;11.858;2023-08-17T01:22:39;18.27;;;8.83;;
58083;SDS011;43882;51.550;11.858;2023-08-17T01:25:06;19.70;;;9.80;;
58083;SDS011;43882;51.550;11.858;2023-08-17T01:27:43;19.92;;;10.15;;
58083;SDS011;43882;51.550;11.858;2023-08-17T01:30:09;17.50;;;7.85;;
58083;SDS011;43882;51.550;11.858;2023-08-17T01:32:40;14.70;;;5.70;;
58083;SDS011;43882;51.550;11.858;2023-08-17T01:35:14;11.57;;;3.40;;
58083;SDS011;43882;51.550;11.858;2023-08-17T01:37:41;10.52;;;2.70;;
58083;SDS011;43882;51.550;11.858;2023-08-17T01:40:09;9.23;;;2.92;;
58083;SDS011;43882;51.550;11.858;2023-08-17T01:42:35;7.63;;;2.28;;
58083;SDS011;43882;51.550;11.858;2023-08-17T01:45:02;9.23;;;2.72;;
58083;SDS011;43882;51.550;11.858;2023-08-17T01:47:28;6.88;;;2.22;;
58083;SDS011;43882;51.550;11.858;2023-08-17T01:49:55;18.95;;;3.20;;
58083;SDS011;43882;51.550;11.858;2023-08-17T01:52:25;16.30;;;2.85;;
58083;SDS011;43882;51.550;11.858;2023-08-17T01:54:52;17.25;;;3.58;;
58083;SDS011;43882;51.550;11.858;2023-08-17T01:57:18;16.13;;;3.60;;
58083;SDS011;43882;51.550;11.858;2023-08-17T01:59:43;15.50;;;3.72;;
58083;SDS011;43882;51.550;11.858;2023-08-17T02:02:09;17.95;;;4.15;;
58083;SDS011;43882;51.550;11.858;2023-08-17T02:04:36;18.08;;;3.78;;
58083;SDS011;43882;51.550;11.858;2023-08-17T02:07:02;14.95;;;4.03;;
58083;SDS011;43882;51.550;11.858;2023-08-17T02:09:28;17.15;;;3.65;;
58083;SDS011;43882;51.550;11.858;2023-08-17T02:11:54;14.73;;;4.10;;
58083;SDS011;43882;51.550;11.858;2023-08-17T02:14:20;15.65;;;4.10;;
58083;SDS011;43882;51.550;11.858;2023-08-17T02:16:46;14.95;;;4.05;;
58083;SDS011;43882;51.550;11.858;2023-08-17T02:19:12;12.25;;;3.28;;
58083;SDS011;43882;51.550;11.858;2023-08-17T02:21:38;13.23;;;3.40;;
58083;SDS011;43882;51.550;11.858;2023-08-17T02:24:04;14.77;;;3.97;;
58083;SDS011;43882;51.550;11.858;2023-08-17T02:26:30;16.33;;;4.30;;
58083;SDS011;43882;51.550;11.858;2023-08-17T02:28:56;14.88;;;4.00;;
58083;SDS011;43882;51.550;11.858;2023-08-17T02:31:22;15.15;;;4.45;;
58083;SDS011;43882;51.550;11.858;2023-08-17T02:33:48;14.88;;;4.10;;
58083;SDS011;43882;51.550;11.858;2023-08-17T02:36:14;14.55;;;4.18;;
58083;SDS011;43882;51.550;11.858;2023-08-17T02:38:40;14.10;;;3.28;;
58083;SDS011;43882;51.550;11.858;2023-08-17T02:41:06;14.52;;;3.80;;
58083;SDS011;43882;51.550;11.858;2023-08-17T02:43:32;14.63;;;3.85;;
58083;SDS011;43882;51.550;11.858;2023-08-17T02:45:58;13.98;;;3.78;;
58083;SDS011;43882;51.550;11.858;2023-08-17T02:48:24;13.70;;;3.60;;
58083;SDS011;43882;51.550;11.858;2023-08-17T02:50:50;14.77;;;3.90;;
58083;SDS011;43882;51.550;11.858;2023-08-17T02:53:16;14.30;;;3.45;;
58083;SDS011;43882;51.550;11.858;2023-08-17T02:55:42;14.68;;;3.88;;
58083;SDS011;43882;51.550;11.858;2023-08-17T02:58:08;14.90;;;4.45;;
58083;SDS011;43882;51.550;11.858;2023-08-17T03:00:34;13.52;;;3.60;;
58083;SDS011;43882;51.550;11.858;2023-08-17T03:03:00;13.15;;;3.75;;
58083;SDS011;43882;51.550;11.858;2023-08-17T03:05:26;14.77;;;3.60;;
58083;SDS011;43882;51.550;11.858;2023-08-17T03:07:52;14.70;;;3.97;;
58083;SDS011;43882;51.550;11.858;2023-08-17T03:10:18;14.90;;;3.78;;
58083;SDS011;43882;51.550;11.858;2023-08-17T03:12:44;14.85;;;4.03;;
58083;SDS011;43882;51.550;11.858;2023-08-17T03:15:10;15.45;;;4.13;;
58083;SDS011;43882;51.550;11.858;2023-08-17T03:17:36;15.95;;;4.18;;
58083;SDS011;43882;51.550;11.858;2023-08-17T03:20:02;15.30;;;4.10;;
58083;SDS011;43882;51.550;11.858;2023-08-17T03:22:30;16.25;;;4.85;;
58083;SDS011;43882;51.550;11.858;2023-08-17T03:24:56;16.40;;;4.50;;
58083;SDS011;43882;51.550;11.858;2023-08-17T03:27:22;17.25;;;4.45;;
58083;SDS011;43882;51.550;11.858;2023-08-17T03:29:49;16.25;;;4.40;;
58083;SDS011;43882;51.550;11.858;2023-08-17T03:32:16;16.25;;;4.13;;
58083;SDS011;43882;51.550;11.858;2023-08-17T03:34:41;16.20;;;4.75;;
58083;SDS011;43882;51.550;11.858;2023-08-17T03:37:07;15.25;;;4.30;;
58083;SDS011;43882;51.550;11.858;2023-08-17T03:39:33;14.93;;;4.47;;
58083;SDS011;43882;51.550;11.858;2023-08-17T03:41:59;16.33;;;4.57;;
58083;SDS011;43882;51.550;11.858;2023-08-17T03:44:25;15.45;;;4.80;;
58083;SDS011;43882;51.550;11.858;2023-08-17T03:46:51;17.63;;;5.00;;
58083;SDS011;43882;51.550;11.858;2023-08-17T03:49:17;15.65;;;4.80;;
58083;SDS011;43882;51.550;11.858;2023-08-17T03:51:43;16.60;;;5.18;;
58083;SDS011;43882;51.550;11.858;2023-08-17T03:54:09;17.95;;;4.82;;
58083;SDS011;43882;51.550;11.858;2023-08-17T03:56:35;14.98;;;3.97;;
58083;SDS011;43882;51.550;11.858;2023-08-17T03:59:01;11.48;;;3.25;;
58083;SDS011;43882;51.550;11.858;2023-08-17T04:01:27;15.00;;;3.33;;
58083;SDS011;43882;51.550;11.858;2023-08-17T04:03:53;12.23;;;3.05;;
58083;SDS011;43882;51.550;11.858;2023-08-17T04:06:19;12.02;;;3.10;;
58083;SDS011;43882;51.550;11.858;2023-08-17T04:08:45;12.63;;;2.90;;
58083;SDS011;43882;51.550;11.858;2023-08-17T04:11:11;12.18;;;3.40;;
58083;SDS011;43882;51.550;11.858;2023-08-17T04:13:37;13.52;;;4.22;;
58083;SDS011;43882;51.550;11.858;2023-08-17T04:16:03;14.10;;;3.72;;
58083;SDS011;43882;51.550;11.858;2023-08-17T04:18:29;15.45;;;4.40;;
58083;SDS011;43882;51.550;11.858;2023-08-17T04:20:55;13.48;;;3.78;;
58083;SDS011;43882;51.550;11.858;2023-08-17T04:23:21;13.52;;;3.92;;
58083;SDS011;43882;51.550;11.858;2023-08-17T04:25:47;13.98;;;3.80;;
58083;SDS011;43882;51.550;11.858;2023-08-17T04:28:13;15.63;;;4.28;;
58083;SDS011;43882;51.550;11.858;2023-08-17T04:30:39;14.00;;;3.90;;
58083;SDS011;43882;51.550;11.858;2023-08-17T04:33:05;16.33;;;4.53;;
58083;SDS011;43882;51.550;11.858;2023-08-17T04:35:32;14.82;;;4.90;;
58083;SDS011;43882;51.550;11.858;2023-08-17T04:37:58;16.77;;;4.75;;
58083;SDS011;43882;51.550;11.858;2023-08-17T04:40:24;15.55;;;4.82;;
58083;SDS011;43882;51.550;11.858;2023-08-17T04:42:51;16.45;;;4.80;;
58083;SDS011;43882;51.550;11.858;2023-08-17T04:45:17;16.60;;;4.85;;
58083;SDS011;43882;51.550;11.858;2023-08-17T04:47:43;17.85;;;5.25;;
58083;SDS011;43882;51.550;11.858;2023-08-17T04:50:09;18.48;;;5.22;;
58083;SDS011;43882;51.550;11.858;2023-08-17T04:52:35;19.17;;;5.65;;
58083;SDS011;43882;51.550;11.858;2023-08-17T04:55:01;18.60;;;5.50;;
58083;SDS011;43882;51.550;11.858;2023-08-17T04:57:27;18.58;;;5.75;;
58083;SDS011;43882;51.550;11.858;2023-08-17T04:59:53;16.02;;;4.70;;
58083;SDS011;43882;51.550;11.858;2023-08-17T05:02:19;15.70;;;4.53;;
58083;SDS011;43882;51.550;11.858;2023-08-17T05:04:46;16.48;;;4.38;;
58083;SDS011;43882;51.550;11.858;2023-08-17T05:07:12;16.73;;;4.70;;
58083;SDS011;43882;51.550;11.858;2023-08-17T05:09:38;14.80;;;3.95;;
58083;SDS011;43882;51.550;11.858;2023-08-17T05:12:04;16.13;;;4.82;;
58083;SDS011;43882;51.550;11.858;2023-08-17T05:14:30;16.00;;;5.00;;
58083;SDS011;43882;51.550;11.858;2023-08-17T05:16:56;17.00;;;4.30;;
58083;SDS011;43882;51.550;11.858;2023-08-17T05:19:22;15.30;;;4.30;;
58083;SDS011;43882;51.550;11.858;2023-08-17T05:21:48;16.10;;;4.50;;
58083;SDS011;43882;51.550;11.858;2023-08-17T05:24:16;14.27;;;3.92;;
58083;SDS011;43882;51.550;11.858;2023-08-17T05:26:43;15.00;;;4.10;;
58083;SDS011;43882;51.550;11.858;2023-08-17T05:29:09;14.35;;;3.70;;
58083;SDS011;43882;51.550;11.858;2023-08-17T05:31:35;12.73;;;3.50;;
58083;SDS011;43882;51.550;11.858;2023-08-17T05:34:01;14.05;;;3.55;;
58083;SDS011;43882;51.550;11.858;2023-08-17T05:36:27;12.75;;;3.53;;
58083;SDS011;43882;51.550;11.858;2023-08-17T05:38:53;13.45;;;3.78;;
58083;SDS011;43882;51.550;11.858;2023-08-17T05:41:18;15.13;;;4.22;;
58083;SDS011;43882;51.550;11.858;2023-08-17T05:43:44;14.70;;;4.05;;
58083;SDS011;43882;51.550;11.858;2023-08-17T05:46:10;14.90;;;4.00;;
58083;SDS011;43882;51.550;11.858;2023-08-17T05:48:36;17.60;;;4.30;;
58083;SDS011;43882;51.550;11.858;2023-08-17T05:51:03;15.73;;;3.90;;
58083;SDS011;43882;51.550;11.858;2023-08-17T05:53:29;14.07;;;3.83;;
58083;SDS011;43882;51.550;11.858;2023-08-17T05:55:55;13.45;;;3.53;;
58083;SDS011;43882;51.550;11.858;2023-08-17T05:58:21;13.77;;;3.67;;
58083;SDS011;43882;51.550;11.858;2023-08-17T06:00:47;15.85;;;4.13;;
58083;SDS011;43882;51.550;11.858;2023-08-17T06:03:12;14.15;;;3.47;;
58083;SDS011;43882;51.550;11.858;2023-08-17T06:05:39;14.45;;;4.00;;
58083;SDS011;43882;51.550;11.858;2023-08-17T06:08:05;14.25;;;4.15;;
58083;SDS011;43882;51.550;11.858;2023-08-17T06:10:31;15.43;;;4.93;;
58083;SDS011;43882;51.550;11.858;2023-08-17T06:12:57;15.80;;;5.00;;
58083;SDS011;43882;51.550;11.858;2023-08-17T06:15:23;15.70;;;5.03;;
58083;SDS011;43882;51.550;11.858;2023-08-17T06:17:49;15.65;;;5.07;;
58083;SDS011;43882;51.550;11.858;2023-08-17T06:20:16;16.35;;;5.20;;
58083;SDS011;43882;51.550;11.858;2023-08-17T06:22:43;15.98;;;5.25;;
58083;SDS011;43882;51.550;11.858;2023-08-17T06:25:09;15.23;;;4.60;;
58083;SDS011;43882;51.550;11.858;2023-08-17T06:27:35;16.15;;;4.30;;
58083;SDS011;43882;51.550;11.858;2023-08-17T06:30:02;14.73;;;4.28;;
58083;SDS011;43882;51.550;11.858;2023-08-17T06:32:28;17.00;;;4.38;;
58083;SDS011;43882;51.550;11.858;2023-08-17T06:34:54;14.02;;;3.97;;
58083;SDS011;43882;51.550;11.858;2023-08-17T06:37:20;14.68;;;4.13;;
58083;SDS011;43882;51.550;11.858;2023-08-17T06:39:46;14.98;;;4.18;;
58083;SDS011;43882;51.550;11.858;2023-08-17T06:42:12;14.68;;;4.50;;
58083;SDS011;43882;51.550;11.858;2023-08-17T06:44:38;15.07;;;4.55;;
58083;SDS011;43882;51.550;11.858;2023-08-17T06:49:39;16.52;;;4.93;;
58083;SDS011;43882;51.550;11.858;2023-08-17T06:52:05;15.98;;;5.30;;
58083;SDS011;43882;51.550;11.858;2023-08-17T06:54:31;15.77;;;5.70;;
58083;SDS011;43882;51.550;11.858;2023-08-17T06:57:00;16.60;;;5.85;;
58083;SDS011;43882;51.550;11.858;2023-08-17T06:59:26;17.52;;;6.32;;
58083;SDS011;43882;51.550;11.858;2023-08-17T07:01:52;17.42;;;5.85;;
58083;SDS011;43882;51.550;11.858;2023-08-17T07:04:18;18.33;;;6.28;;
58083;SDS011;43882;51.550;11.858;2023-08-17T07:06:44;16.90;;;5.82;;
58083;SDS011;43882;51.550;11.858;2023-08-17T07:09:10;16.65;;;5.53;;
58083;SDS011;43882;51.550;11.858;2023-08-17T07:11:37;16.15;;;5.68;;
58083;SDS011;43882;51.550;11.858;2023-08-17T07:14:03;16.75;;;6.15;;
58083;SDS011;43882;51.550;11.858;2023-08-17T07:16:31;18.67;;;6.63;;
58083;SDS011;43882;51.550;11.858;2023-08-17T07:18:57;18.27;;;6.80;;
58083;SDS011;43882;51.550;11.858;2023-08-17T07:21:23;18.63;;;7.55;;
58083;SDS011;43882;51.550;11.858;2023-08-17T07:23:49;18.58;;;7.68;;
58083;SDS011;43882;51.550;11.858;2023-08-17T07:26:16;21.40;;;9.02;;
58083;SDS011;43882;51.550;11.858;2023-08-17T07:28:44;22.27;;;10.02;;
58083;SDS011;43882;51.550;11.858;2023-08-17T07:31:10;22.50;;;10.30;;
58083;SDS011;43882;51.550;11.858;2023-08-17T07:33:36;22.23;;;10.70;;
58083;SDS011;43882;51.550;11.858;2023-08-17T07:36:02;21.38;;;10.32;;
58083;SDS011;43882;51.550;11.858;2023-08-17T07:38:29;21.63;;;10.73;;
58083;SDS011;43882;51.550;11.858;2023-08-17T07:40:55;21.02;;;11.00;;
58083;SDS011;43882;51.550;11.858;2023-08-17T07:43:21;24.05;;;11.98;;
58083;SDS011;43882;51.550;11.858;2023-08-17T07:45:54;23.25;;;11.75;;
58083;SDS011;43882;51.550;11.858;2023-08-17T07:48:20;22.73;;;12.55;;
58083;SDS011;43882;51.550;11.858;2023-08-17T07:50:50;22.38;;;11.48;;
58083;SDS011;43882;51.550;11.858;2023-08-17T07:53:16;20.98;;;10.75;;
58083;SDS011;43882;51.550;11.858;2023-08-17T07:55:42;24.05;;;13.48;;
58083;SDS011;43882;51.550;11.858;2023-08-17T07:58:08;23.50;;;13.07;;
58083;SDS011;43882;51.550;11.858;2023-08-17T08:00:34;22.85;;;13.65;;
58083;SDS011;43882;51.550;11.858;2023-08-17T08:03:00;25.38;;;13.68;;
58083;SDS011;43882;51.550;11.858;2023-08-17T08:05:26;26.17;;;15.65;;
58083;SDS011;43882;51.550;11.858;2023-08-17T08:07:52;25.50;;;14.82;;
58083;SDS011;43882;51.550;11.858;2023-08-17T08:10:18;26.17;;;14.77;;
58083;SDS011;43882;51.550;11.858;2023-08-17T08:12:44;25.85;;;14.93;;
58083;SDS011;43882;51.550;11.858;2023-08-17T08:15:10;25.38;;;14.77;;
58083;SDS011;43882;51.550;11.858;2023-08-17T08:17:36;26.70;;;16.00;;
58083;SDS011;43882;51.550;11.858;2023-08-17T08:20:03;27.30;;;15.90;;
58083;SDS011;43882;51.550;11.858;2023-08-17T08:22:29;27.08;;;15.73;;
58083;SDS011;43882;51.550;11.858;2023-08-17T08:24:55;24.52;;;15.13;;
58083;SDS011;43882;51.550;11.858;2023-08-17T08:27:21;24.50;;;15.10;;
58083;SDS011;43882;51.550;11.858;2023-08-17T08:29:47;26.25;;;16.00;;
58083;SDS011;43882;51.550;11.858;2023-08-17T08:32:13;27.95;;;16.80;;
58083;SDS011;43882;51.550;11.858;2023-08-17T08:34:39;29.40;;;16.63;;
58083;SDS011;43882;51.550;11.858;2023-08-17T08:37:05;27.17;;;16.10;;
58083;SDS011;43882;51.550;11.858;2023-08-17T08:39:31;27.10;;;15.98;;
58083;SDS011;43882;51.550;11.858;2023-08-17T08:41:57;28.02;;;18.13;;
58083;SDS011;43882;51.550;11.858;2023-08-17T08:44:23;24.77;;;16.33;;
58083;SDS011;43882;51.550;11.858;2023-08-17T08:46:50;26.13;;;16.08;;
58083;SDS011;43882;51.550;11.858;2023-08-17T08:49:19;28.45;;;16.52;;
58083;SDS011;43882;51.550;11.858;2023-08-17T08:51:48;23.77;;;15.57;;
58083;SDS011;43882;51.550;11.858;2023-08-17T08:54:15;24.33;;;15.02;;
58083;SDS011;43882;51.550;11.858;2023-08-17T08:56:44;26.67;;;16.65;;
58083;SDS011;43882;51.550;11.858;2023-08-17T08:59:10;25.15;;;15.50;;
58083;SDS011;43882;51.550;11.858;2023-08-17T09:01:36;25.92;;;15.35;;
58083;SDS011;43882;51.550;11.858;2023-08-17T09:04:04;24.13;;;15.27;;
58083;SDS011;43882;51.550;11.858;2023-08-17T09:06:30;24.02;;;15.30;;
58083;SDS011;43882;51.550;11.858;2023-08-17T09:08:59;25.27;;;16.35;;
58083;SDS011;43882;51.550;11.858;2023-08-17T09:11:26;26.92;;;17.58;;
58083;SDS011;43882;51.550;11.858;2023-08-17T09:13:52;24.15;;;16.00;;
58083;SDS011;43882;51.550;11.858;2023-08-17T09:16:18;28.10;;;17.27;;
58083;SDS011;43882;51.550;11.858;2023-08-17T09:18:44;27.48;;;17.13;;
58083;SDS011;43882;51.550;11.858;2023-08-17T09:21:19;24.85;;;16.08;;
58083;SDS011;43882;51.550;11.858;2023-08-17T09:23:50;27.15;;;17.02;;
58083;SDS011;43882;51.550;11.858;2023-08-17T09:26:16;24.05;;;14.70;;
58083;SDS011;43882;51.550;11.858;2023-08-17T09:28:44;22.67;;;14.52;;
58083;SDS011;43882;51.550;11.858;2023-08-17T09:31:10;21.52;;;14.00;;
58083;SDS011;43882;51.550;11.858;2023-08-17T09:33:37;25.33;;;14.15;;
58083;SDS011;43882;51.550;11.858;2023-08-17T09:36:03;23.67;;;13.93;;
58083;SDS011;43882;51.550;11.858;2023-08-17T09:38:29;21.98;;;13.70;;
58083;SDS011;43882;51.550;11.858;2023-08-17T09:40:55;22.08;;;13.13;;
58083;SDS011;43882;51.550;11.858;2023-08-17T09:43:22;22.45;;;14.07;;
58083;SDS011;43882;51.550;11.858;2023-08-17T09:45:49;24.60;;;15.07;;
58083;SDS011;43882;51.550;11.858;2023-08-17T09:48:16;22.73;;;14.30;;
58083;SDS011;43882;51.550;11.858;2023-08-17T09:50:45;21.75;;;14.00;;
58083;SDS011;43882;51.550;11.858;2023-08-17T09:53:15;22.50;;;14.25;;
58083;SDS011;43882;51.550;11.858;2023-08-17T09:55:41;25.25;;;16.05;;
58083;SDS011;43882;51.550;11.858;2023-08-17T09:58:08;26.00;;;17.08;;
58083;SDS011;43882;51.550;11.858;2023-08-17T10:00:34;24.73;;;16.40;;
58083;SDS011;43882;51.550;11.858;2023-08-17T10:03:03;24.55;;;16.13;;
58083;SDS011;43882;51.550;11.858;2023-08-17T10:05:31;24.63;;;16.83;;
58083;SDS011;43882;51.550;11.858;2023-08-17T10:08:01;26.53;;;18.10;;
58083;SDS011;43882;51.550;11.858;2023-08-17T10:10:28;28.42;;;19.38;;
58083;SDS011;43882;51.550;11.858;2023-08-17T10:15:34;27.63;;;19.42;;
58083;SDS011;43882;51.550;11.858;2023-08-17T10:18:12;28.85;;;20.60;;
58083;SDS011;43882;51.550;11.858;2023-08-17T10:20:41;27.73;;;19.88;;
58083;SDS011;43882;51.550;11.858;2023-08-17T10:23:10;32.15;;;21.33;;
58083;SDS011;43882;51.550;11.858;2023-08-17T10:25:38;31.25;;;20.55;;
58083;SDS011;43882;51.550;11.858;2023-08-17T10:28:04;29.00;;;20.88;;
58083;SDS011;43882;51.550;11.858;2023-08-17T10:30:30;29.15;;;19.75;;
58083;SDS011;43882;51.550;11.858;2023-08-17T10:32:56;28.38;;;18.65;;
58083;SDS011;43882;51.550;11.858;2023-08-17T10:35:22;26.95;;;17.65;;
58083;SDS011;43882;51.550;11.858;2023-08-17T10:37:49;25.83;;;17.20;;
58083;SDS011;43882;51.550;11.858;2023-08-17T10:40:15;25.15;;;15.02;;
58083;SDS011;43882;51.550;11.858;2023-08-17T10:42:41;22.50;;;13.95;;
58083;SDS011;43882;51.550;11.858;2023-08-17T10:45:24;21.73;;;12.50;;
58083;SDS011;43882;51.550;11.858;2023-08-17T10:47:54;21.50;;;13.25;;
58083;SDS011;43882;51.550;11.858;2023-08-17T10:50:25;24.33;;;16.10;;
58083;SDS011;43882;51.550;11.858;2023-08-17T10:52:53;23.83;;;16.15;;
58083;SDS011;43882;51.550;11.858;2023-08-17T10:55:34;22.58;;;14.80;;
58083;SDS011;43882;51.550;11.858;2023-08-17T10:58:00;24.30;;;15.83;;
58083;SDS011;43882;51.550;11.858;2023-08-17T11:00:27;25.42;;;16.20;;
58083;SDS011;43882;51.550;11.858;2023-08-17T11:02:58;20.20;;;11.60;;
58083;SDS011;43882;51.550;11.858;2023-08-17T11:08:03;19.25;;;10.93;;
58083;SDS011;43882;51.550;11.858;2023-08-17T11:10:29;19.02;;;10.68;;
58083;SDS011;43882;51.550;11.858;2023-08-17T11:12:56;19.92;;;10.85;;
58083;SDS011;43882;51.550;11.858;2023-08-17T11:15:26;20.45;;;11.93;;
58083;SDS011;43882;51.550;11.858;2023-08-17T11:18:02;20.60;;;12.60;;
58083;SDS011;43882;51.550;11.858;2023-08-17T11:20:28;23.10;;;13.82;;
58083;SDS011;43882;51.550;11.858;2023-08-17T11:22:54;20.55;;;12.50;;
58083;SDS011;43882;51.550;11.858;2023-08-17T11:25:20;22.55;;;13.40;;
58083;SDS011;43882;51.550;11.858;2023-08-17T11:27:46;21.63;;;13.18;;
58083;SDS011;43882;51.550;11.858;2023-08-17T11:30:12;21.88;;;14.73;;
58083;SDS011;43882;51.550;11.858;2023-08-17T11:32:38;21.00;;;13.30;;
58083;SDS011;43882;51.550;11.858;2023-08-17T11:35:04;22.15;;;14.07;;
58083;SDS011;43882;51.550;11.858;2023-08-17T11:37:30;20.90;;;12.38;;
58083;SDS011;43882;51.550;11.858;2023-08-17T11:39:57;19.60;;;12.00;;
58083;SDS011;43882;51.550;11.858;2023-08-17T11:42:23;22.55;;;14.32;;
58083;SDS011;43882;51.550;11.858;2023-08-17T11:44:49;20.73;;;13.25;;
58083;SDS011;43882;51.550;11.858;2023-08-17T11:47:15;20.60;;;13.02;;
58083;SDS011;43882;51.550;11.858;2023-08-17T11:49:41;21.88;;;13.82;;
58083;SDS011;43882;51.550;11.858;2023-08-17T11:52:10;20.73;;;13.25;;
58083;SDS011;43882;51.550;11.858;2023-08-17T11:54:39;21.55;;;14.10;;
58083;SDS011;43882;51.550;11.858;2023-08-17T11:57:05;22.13;;;14.23;;
58083;SDS011;43882;51.550;11.858;2023-08-17T11:59:31;21.98;;;13.85;;
58083;SDS011;43882;51.550;11.858;2023-08-17T12:01:58;20.55;;;13.20;;
58083;SDS011;43882;51.550;11.858;2023-08-17T12:04:24;21.77;;;13.73;;
58083;SDS011;43882;51.550;11.858;2023-08-17T12:06:50;19.38;;;11.95;;
58083;SDS011;43882;51.550;11.858;2023-08-17T12:09:17;19.45;;;11.98;;
58083;SDS011;43882;51.550;11.858;2023-08-17T12:11:44;19.67;;;12.13;;
58083;SDS011;43882;51.550;11.858;2023-08-17T12:14:11;19.13;;;11.98;;
58083;SDS011;43882;51.550;11.858;2023-08-17T12:16:47;20.08;;;12.25;;
58083;SDS011;43882;51.550;11.858;2023-08-17T12:19:13;19.48;;;11.82;;
58083;SDS011;43882;51.550;11.858;2023-08-17T12:21:42;19.27;;;12.27;;
58083;SDS011;43882;51.550;11.858;2023-08-17T12:24:09;19.80;;;11.40;;
58083;SDS011;43882;51.550;11.858;2023-08-17T12:26:46;18.25;;;10.60;;
58083;SDS011;43882;51.550;11.858;2023-08-17T12:29:12;19.02;;;11.02;;
58083;SDS011;43882;51.550;11.858;2023-08-17T12:31:38;19.52;;;11.57;;
58083;SDS011;43882;51.550;11.858;2023-08-17T12:34:04;18.92;;;11.18;;
58083;SDS011;43882;51.550;11.858;2023-08-17T12:36:34;18.33;;;10.63;;
58083;SDS011;43882;51.550;11.858;2023-08-17T12:41:29;18.95;;;10.85;;
58083;SDS011;43882;51.550;11.858;2023-08-17T12:43:55;19.42;;;10.18;;
58083;SDS011;43882;51.550;11.858;2023-08-17T12:46:24;17.70;;;10.27;;
58083;SDS011;43882;51.550;11.858;2023-08-17T12:48:50;17.60;;;9.38;;
58083;SDS011;43882;51.550;11.858;2023-08-17T12:51:16;19.40;;;9.82;;
58083;SDS011;43882;51.550;11.858;2023-08-17T12:53:42;17.58;;;9.10;;
58083;SDS011;43882;51.550;11.858;2023-08-17T12:56:08;18.13;;;9.55;;
58083;SDS011;43882;51.550;11.858;2023-08-17T12:58:34;17.50;;;9.55;;
58083;SDS011;43882;51.550;11.858;2023-08-17T13:01:00;17.85;;;9.95;;
58083;SDS011;43882;51.550;11.858;2023-08-17T13:03:26;19.02;;;10.05;;
58083;SDS011;43882;51.550;11.858;2023-08-17T13:05:52;17.35;;;9.25;;
58083;SDS011;43882;51.550;11.858;2023-08-17T13:08:18;17.48;;;9.45;;
58083;SDS011;43882;51.550;11.858;2023-08-17T13:10:44;17.05;;;9.00;;
58083;SDS011;43882;51.550;11.858;2023-08-17T13:13:10;19.40;;;9.05;;
58083;SDS011;43882;51.550;11.858;2023-08-17T13:15:36;17.25;;;8.98;;
58083;SDS011;43882;51.550;11.858;2023-08-17T13:18:02;18.17;;;8.93;;
58083;SDS011;43882;51.550;11.858;2023-08-17T13:20:28;17.08;;;9.02;;
58083;SDS011;43882;51.550;11.858;2023-08-17T13:22:54;17.15;;;8.70;;
58083;SDS011;43882;51.550;11.858;2023-08-17T13:25:19;18.30;;;9.52;;
58083;SDS011;43882;51.550;11.858;2023-08-17T13:27:45;17.25;;;9.07;;
58083;SDS011;43882;51.550;11.858;2023-08-17T13:30:12;18.35;;;8.80;;
58083;SDS011;43882;51.550;11.858;2023-08-17T13:32:38;17.48;;;9.07;;
58083;SDS011;43882;51.550;11.858;2023-08-17T13:35:04;18.50;;;9.90;;
58083;SDS011;43882;51.550;11.858;2023-08-17T13:37:30;17.80;;;8.90;;
58083;SDS011;43882;51.550;11.858;2023-08-17T13:39:56;17.48;;;9.52;;
58083;SDS011;43882;51.550;11.858;2023-08-17T13:42:23;17.10;;;8.88;;
58083;SDS011;43882;51.550;11.858;2023-08-17T13:44:49;17.30;;;8.85;;
58083;SDS011;43882;51.550;11.858;2023-08-17T13:47:15;18.33;;;8.35;;
58083;SDS011;43882;51.550;11.858;2023-08-17T13:49:41;17.23;;;8.25;;
58083;SDS011;43882;51.550;11.858;2023-08-17T13:52:07;16.98;;;8.00;;
58083;SDS011;43882;51.550;11.858;2023-08-17T13:54:33;17.17;;;8.75;;
58083;SDS011;43882;51.550;11.858;2023-08-17T13:56:59;16.20;;;8.35;;
58083;SDS011;43882;51.550;11.858;2023-08-17T13:59:25;17.67;;;8.52;;
58083;SDS011;43882;51.550;11.858;2023-08-17T14:01:51;16.92;;;8.77;;
58083;SDS011;43882;51.550;11.858;2023-08-17T14:04:17;16.98;;;8.55;;
58083;SDS011;43882;51.550;11.858;2023-08-17T14:06:43;17.45;;;9.00;;
58083;SDS011;43882;51.550;11.858;2023-08-17T14:09:09;17.23;;;9.25;;
58083;SDS011;43882;51.550;11.858;2023-08-17T14:11:35;17.08;;;8.73;;
58083;SDS011;43882;51.550;11.858;2023-08-17T14:14:01;17.40;;;8.73;;
58083;SDS011;43882;51.550;11.858;2023-08-17T14:16:27;17.17;;;8.85;;
58083;SDS011;43882;51.550;11.858;2023-08-17T14:18:53;17.13;;;8.95;;
58083;SDS011;43882;51.550;11.858;2023-08-17T14:21:19;18.25;;;9.50;;
58083;SDS011;43882;51.550;11.858;2023-08-17T14:23:45;16.55;;;8.38;;
58083;SDS011;43882;51.550;11.858;2023-08-17T14:26:11;16.88;;;8.63;;